createdAt,value
2017-05-23T00:01:42.216Z,9.02
2017-05-23T00:04:10.625Z,9.74
2017-05-23T00:06:38.920Z,9.92
2017-05-23T00:09:07.297Z,9.16
2017-05-23T00:11:35.605Z,9.34
2017-05-23T00:14:03.962Z,8.86
2017-05-23T00:16:32.302Z,9.42
2017-05-23T00:19:00.617Z,8.18
2017-05-23T00:21:28.993Z,8.48
2017-05-23T00:23:57.311Z,8.98
2017-05-23T00:26:25.612Z,8.78
2017-05-23T00:28:53.931Z,9.72
2017-05-23T00:31:22.312Z,9.54
2017-05-23T00:33:50.679Z,9.80
2017-05-23T00:36:19.061Z,8.94
2017-05-23T00:38:47.353Z,9.28
2017-05-23T00:41:15.698Z,9.42
2017-05-23T00:43:44.102Z,9.52
2017-05-23T00:46:12.480Z,9.78
2017-05-23T00:48:40.784Z,9.48
2017-05-23T00:51:09.076Z,10.58
2017-05-23T00:53:37.514Z,10.16
2017-05-23T00:56:05.809Z,11.72
2017-05-23T00:58:34.218Z,9.60
2017-05-23T01:01:02.520Z,9.84
2017-05-23T01:03:30.806Z,10.36
2017-05-23T01:05:59.113Z,9.94
2017-05-23T01:08:27.396Z,9.96
2017-05-23T01:10:55.763Z,10.20
2017-05-23T01:13:24.137Z,10.82
2017-05-23T01:15:52.428Z,9.88
2017-05-23T01:18:20.822Z,10.34
2017-05-23T01:20:49.180Z,10.14
2017-05-23T01:23:17.465Z,9.38
2017-05-23T01:25:45.840Z,10.80
2017-05-23T01:28:14.135Z,10.50
2017-05-23T01:30:42.485Z,9.66
2017-05-23T01:33:10.784Z,10.10
2017-05-23T01:35:39.148Z,10.16
2017-05-23T01:38:07.535Z,10.12
2017-05-23T01:40:35.822Z,10.28
2017-05-23T01:43:04.140Z,10.74
2017-05-23T01:45:32.447Z,10.38
2017-05-23T01:48:00.735Z,10.82
2017-05-23T01:50:29.059Z,10.50
2017-05-23T01:52:57.384Z,10.74
2017-05-23T01:55:25.776Z,10.56
2017-05-23T01:57:54.065Z,11.14
2017-05-23T02:00:22.396Z,10.42
2017-05-23T02:02:50.716Z,10.02
2017-05-23T02:05:19.104Z,10.90
2017-05-23T02:07:47.465Z,10.82
2017-05-23T02:10:15.849Z,12.48
2017-05-23T02:12:44.226Z,11.50
2017-05-23T02:15:12.525Z,11.60
2017-05-23T02:17:40.882Z,11.16
2017-05-23T02:20:09.259Z,11.60
2017-05-23T02:22:37.639Z,10.72
2017-05-23T02:25:05.981Z,11.82
2017-05-23T02:27:34.277Z,11.78
2017-05-23T02:30:02.571Z,10.12
2017-05-23T02:32:30.934Z,10.90
2017-05-23T02:34:59.328Z,10.58
2017-05-23T02:37:27.708Z,10.90
2017-05-23T02:39:56.084Z,10.72
2017-05-23T02:42:24.480Z,10.22
2017-05-23T02:44:52.800Z,11.40
2017-05-23T02:47:21.093Z,10.72
2017-05-23T02:49:49.515Z,9.98
2017-05-23T02:52:17.875Z,10.98
2017-05-23T02:54:46.254Z,9.84
2017-05-23T02:57:14.562Z,10.40
2017-05-23T02:59:42.853Z,10.36
2017-05-23T03:02:11.196Z,10.74
2017-05-23T03:04:39.583Z,10.46
2017-05-23T03:07:07.949Z,9.54
2017-05-23T03:09:36.321Z,10.26
2017-05-23T03:12:04.642Z,10.50
2017-05-23T03:14:33.096Z,10.40
2017-05-23T03:17:01.394Z,9.72
2017-05-23T03:19:29.739Z,9.94
2017-05-23T03:21:58.040Z,9.90
2017-05-23T03:24:26.399Z,9.62
2017-05-23T03:26:54.787Z,9.82
2017-05-23T03:29:23.170Z,10.16
2017-05-23T03:31:51.468Z,10.06
2017-05-23T03:34:19.930Z,10.18
2017-05-23T03:36:48.302Z,8.98
2017-05-23T03:39:16.666Z,9.52
2017-05-23T03:41:44.970Z,10.76
2017-05-23T03:44:13.331Z,9.78
2017-05-23T03:46:41.724Z,9.54
2017-05-23T03:49:10.093Z,9.06
2017-05-23T03:51:38.472Z,9.34
2017-05-23T03:54:06.839Z,9.52
2017-05-23T03:56:35.146Z,9.82
2017-05-23T03:59:03.498Z,9.58
2017-05-23T04:01:31.880Z,10.18
2017-05-23T04:04:00.192Z,10.90
2017-05-23T04:06:28.557Z,10.50
2017-05-23T04:08:56.914Z,9.40
2017-05-23T04:11:25.288Z,9.66
2017-05-23T04:13:53.568Z,9.18
2017-05-23T04:16:21.966Z,8.32
2017-05-23T04:18:50.287Z,9.54
2017-05-23T04:21:19.044Z,11.28
2017-05-23T04:23:47.411Z,9.34
2017-05-23T04:26:15.706Z,9.42
2017-05-23T04:28:44.051Z,10.42
2017-05-23T04:31:12.344Z,10.76
2017-05-23T04:33:40.733Z,9.24
2017-05-23T04:36:09.065Z,9.62
2017-05-23T04:38:37.370Z,8.64
2017-05-23T04:41:05.726Z,9.98
2017-05-23T04:43:34.111Z,9.22
2017-05-23T04:46:02.437Z,9.92
2017-05-23T04:48:30.761Z,9.44
2017-05-23T04:50:59.058Z,10.46
2017-05-23T04:53:27.470Z,9.04
2017-05-23T04:55:55.761Z,9.94
2017-05-23T04:58:24.137Z,9.70
2017-05-23T05:00:52.520Z,9.86
2017-05-23T05:03:20.819Z,10.70
2017-05-23T05:05:49.125Z,9.36
2017-05-23T05:08:17.543Z,10.58
2017-05-23T05:10:45.872Z,9.52
2017-05-23T05:13:14.169Z,10.56
2017-05-23T05:15:42.454Z,10.76
2017-05-23T05:18:10.776Z,10.26
2017-05-23T05:20:39.155Z,11.68
2017-05-23T05:23:07.531Z,13.80
2017-05-23T05:25:35.843Z,9.36
2017-05-23T05:28:04.269Z,9.98
2017-05-23T05:30:32.587Z,10.06
2017-05-23T05:33:00.906Z,11.78
2017-05-23T05:35:29.308Z,11.52
2017-05-23T05:37:57.597Z,18.80
2017-05-23T05:40:25.937Z,14.22
2017-05-23T05:42:54.252Z,14.96
2017-05-23T05:45:22.537Z,13.80
2017-05-23T05:47:50.847Z,11.90
2017-05-23T05:50:19.188Z,11.28
2017-05-23T05:52:47.553Z,11.04
2017-05-23T05:55:16.031Z,12.44
2017-05-23T05:57:44.427Z,13.58
2017-05-23T06:00:12.793Z,13.56
2017-05-23T06:02:41.169Z,12.00
2017-05-23T06:05:09.553Z,11.94
2017-05-23T06:07:37.850Z,12.42
2017-05-23T06:10:06.212Z,10.70
2017-05-23T06:12:34.527Z,11.78
2017-05-23T06:15:02.824Z,12.52
2017-05-23T06:17:31.242Z,11.44
2017-05-23T06:19:59.536Z,12.16
2017-05-23T06:22:27.850Z,11.94
2017-05-23T06:24:56.193Z,13.84
2017-05-23T06:27:24.573Z,12.66
2017-05-23T06:29:52.937Z,13.02
2017-05-23T06:32:21.336Z,11.96
2017-05-23T06:34:49.896Z,11.72
2017-05-23T06:37:18.291Z,13.20
2017-05-23T06:39:46.678Z,10.60
2017-05-23T06:42:15.041Z,12.24
2017-05-23T06:44:43.419Z,12.50
2017-05-23T06:47:11.798Z,14.24
2017-05-23T06:49:40.177Z,11.10
2017-05-23T06:52:08.507Z,10.96
2017-05-23T06:54:38.678Z,11.40
2017-05-23T06:57:07.058Z,11.48
2017-05-23T06:59:35.341Z,10.82
2017-05-23T07:02:03.676Z,11.68
2017-05-23T07:04:31.962Z,14.70
2017-05-23T07:06:59.496Z,21.42
2017-05-23T07:09:27.819Z,19.76
2017-05-23T07:11:56.122Z,11.98
2017-05-23T07:14:24.486Z,11.70
2017-05-23T07:16:52.853Z,13.74
2017-05-23T07:19:21.193Z,13.30
2017-05-23T07:21:49.520Z,13.28
2017-05-23T07:24:17.893Z,10.58
2017-05-23T07:26:46.258Z,12.38
2017-05-23T07:29:14.545Z,10.02
2017-05-23T07:31:42.925Z,10.36
2017-05-23T07:34:11.301Z,9.80
2017-05-23T07:36:39.692Z,13.98
2017-05-23T07:39:08.163Z,10.44
2017-05-23T07:41:36.565Z,14.68
2017-05-23T07:44:04.931Z,10.18
2017-05-23T07:46:33.241Z,9.56
2017-05-23T07:49:01.598Z,19.74
2017-05-23T07:51:29.909Z,15.36
2017-05-23T07:53:58.218Z,13.16
2017-05-23T07:56:26.616Z,8.10
2017-05-23T07:58:54.904Z,11.08
2017-05-23T08:01:23.214Z,18.80
2017-05-23T08:03:51.534Z,22.38
2017-05-23T08:06:19.817Z,8.90
2017-05-23T08:08:48.129Z,8.58
2017-05-23T08:11:16.477Z,8.98
2017-05-23T08:13:44.869Z,8.58
2017-05-23T08:16:13.204Z,8.96
2017-05-23T08:18:41.491Z,9.90
2017-05-23T08:21:09.826Z,9.90
2017-05-23T08:23:38.175Z,8.54
2017-05-23T08:26:06.469Z,9.04
2017-05-23T08:28:34.772Z,9.02
2017-05-23T08:31:03.117Z,9.36
2017-05-23T08:33:31.491Z,7.78
2017-05-23T08:35:59.784Z,8.68
2017-05-23T08:38:28.066Z,7.82
2017-05-23T08:40:56.364Z,6.96
2017-05-23T08:43:24.710Z,7.68
2017-05-23T08:45:53.053Z,6.68
2017-05-23T08:48:21.349Z,7.04
2017-05-23T08:50:49.644Z,6.20
2017-05-23T08:53:18.022Z,14.62
2017-05-23T08:55:46.419Z,8.12
2017-05-23T08:58:14.770Z,5.92
2017-05-23T09:00:43.150Z,7.08
2017-05-23T09:03:11.529Z,6.96
2017-05-23T09:05:39.901Z,6.64
2017-05-23T09:08:08.288Z,6.56
2017-05-23T09:10:36.618Z,6.06
2017-05-23T09:13:04.940Z,7.66
2017-05-23T09:15:33.317Z,6.38
2017-05-23T09:18:01.620Z,5.24
2017-05-23T09:20:29.976Z,4.64
2017-05-23T09:22:58.287Z,4.94
2017-05-23T09:25:32.339Z,7.84
2017-05-23T09:28:00.657Z,5.22
2017-05-23T09:30:28.973Z,4.94
2017-05-23T09:32:57.313Z,4.04
2017-05-23T09:35:25.682Z,5.50
2017-05-23T09:37:53.973Z,4.46
2017-05-23T09:40:22.348Z,4.76
2017-05-23T09:42:50.730Z,4.52
2017-05-23T09:45:19.090Z,4.26
2017-05-23T09:47:47.469Z,5.86
2017-05-23T09:50:15.848Z,5.28
2017-05-23T09:52:44.183Z,4.52
2017-05-23T09:55:12.472Z,4.12
2017-05-23T09:57:40.880Z,4.32
2017-05-23T10:00:09.189Z,4.34
2017-05-23T10:02:37.537Z,4.16
2017-05-23T10:05:05.914Z,3.84
2017-05-23T10:07:34.325Z,4.56
2017-05-23T10:10:02.740Z,5.92
2017-05-23T10:12:31.134Z,6.74
2017-05-23T10:14:59.441Z,20.02
2017-05-23T10:17:27.792Z,5.72
2017-05-23T10:19:56.098Z,4.82
2017-05-23T10:22:24.533Z,5.16
2017-05-23T10:24:52.820Z,6.22
2017-05-23T10:27:21.194Z,5.48
2017-05-23T10:29:49.497Z,6.04
2017-05-23T10:32:17.884Z,6.04
2017-05-23T10:34:46.225Z,5.36
2017-05-23T10:37:14.609Z,7.22
2017-05-23T10:39:42.909Z,5.94
2017-05-23T10:42:11.264Z,6.50
2017-05-23T10:44:39.644Z,5.68
2017-05-23T10:47:07.969Z,6.68
2017-05-23T10:49:36.259Z,6.28
2017-05-23T10:52:04.548Z,6.78
2017-05-23T10:54:32.988Z,6.90
2017-05-23T10:57:01.334Z,8.02
2017-05-23T10:59:29.813Z,6.32
2017-05-23T11:01:58.202Z,6.52
2017-05-23T11:04:26.503Z,6.02
2017-05-23T11:06:54.807Z,6.34
2017-05-23T11:09:23.096Z,7.18
2017-05-23T11:11:51.504Z,6.70
2017-05-23T11:14:19.981Z,6.86
2017-05-23T11:16:48.570Z,6.84
2017-05-23T11:19:16.944Z,5.64
2017-05-23T11:21:45.340Z,7.16
2017-05-23T11:24:13.705Z,9.04
2017-05-23T11:26:42.084Z,5.78
2017-05-23T11:29:10.372Z,5.34
2017-05-23T11:31:38.694Z,5.24
2017-05-23T11:34:06.988Z,6.56
2017-05-23T11:36:35.293Z,5.74
2017-05-23T11:39:03.589Z,6.36
2017-05-23T11:41:31.956Z,11.82
2017-05-23T11:44:00.328Z,14.62
2017-05-23T11:46:28.712Z,5.18
2017-05-23T11:48:56.996Z,5.48
2017-05-23T11:51:25.318Z,4.52
2017-05-23T11:53:53.596Z,4.88
2017-05-23T11:56:21.916Z,4.68
2017-05-23T11:58:50.315Z,3.90
2017-05-23T12:01:18.664Z,4.48
2017-05-23T12:03:46.949Z,4.42
2017-05-23T12:06:15.442Z,3.90
2017-05-23T12:08:43.816Z,4.34
2017-05-23T12:11:12.200Z,4.72
2017-05-23T12:13:40.529Z,4.86
2017-05-23T12:16:08.828Z,4.82
2017-05-23T12:18:37.118Z,4.20
2017-05-23T12:21:05.439Z,4.12
2017-05-23T12:23:33.779Z,3.96
2017-05-23T12:26:02.095Z,4.40
2017-05-23T12:28:30.376Z,4.06
2017-05-23T12:30:58.816Z,4.98
2017-05-23T12:33:27.108Z,5.80
2017-05-23T12:35:55.468Z,3.66
2017-05-23T12:38:23.774Z,3.78
2017-05-23T12:40:52.064Z,3.92
2017-05-23T12:43:20.374Z,3.88
2017-05-23T12:45:48.683Z,4.18
2017-05-23T12:48:17.064Z,3.88
2017-05-23T12:50:46.465Z,3.98
2017-05-23T12:53:15.437Z,5.92
2017-05-23T12:55:43.881Z,4.40
2017-05-23T12:58:12.331Z,3.56
2017-05-23T13:00:41.545Z,3.46
2017-05-23T13:03:09.856Z,4.82
2017-05-23T13:05:38.140Z,3.78
2017-05-23T13:08:06.481Z,3.68
2017-05-23T13:10:34.821Z,3.64
2017-05-23T13:13:03.298Z,6.96
2017-05-23T13:15:31.641Z,4.20
2017-05-23T13:18:00.150Z,3.90
2017-05-23T13:20:28.523Z,5.06
2017-05-23T13:22:56.838Z,3.88
2017-05-23T13:25:25.154Z,3.96
2017-05-23T13:27:53.493Z,3.60
2017-05-23T13:30:21.838Z,4.56
2017-05-23T13:32:50.146Z,9.46
2017-05-23T13:35:18.479Z,4.04
2017-05-23T13:37:46.777Z,4.60
2017-05-23T13:40:15.066Z,4.44
2017-05-23T13:42:43.439Z,5.02
2017-05-23T13:45:11.809Z,4.24
2017-05-23T13:47:40.197Z,5.12
2017-05-23T13:50:08.548Z,5.22
2017-05-23T13:52:36.834Z,4.64
2017-05-23T13:55:05.217Z,5.42
2017-05-23T13:57:33.566Z,4.24
2017-05-23T14:00:01.848Z,4.94
2017-05-23T14:02:30.228Z,4.68
2017-05-23T14:04:58.621Z,4.58
2017-05-23T14:07:26.954Z,5.32
2017-05-23T14:09:55.375Z,4.96
2017-05-23T14:12:23.770Z,5.96
2017-05-23T14:14:52.185Z,5.48
2017-05-23T14:17:20.481Z,4.74
2017-05-23T14:19:48.787Z,5.02
2017-05-23T14:22:17.080Z,5.56
2017-05-23T14:24:45.441Z,4.78
2017-05-23T14:27:13.772Z,4.94
2017-05-23T14:29:42.150Z,4.98
2017-05-23T14:32:10.537Z,4.34
2017-05-23T14:34:38.921Z,4.96
2017-05-23T14:37:07.294Z,4.86
2017-05-23T14:39:35.625Z,5.22
2017-05-23T14:42:03.954Z,4.80
2017-05-23T14:44:32.318Z,5.86
2017-05-23T14:47:00.700Z,5.10
2017-05-23T14:49:29.090Z,4.90
2017-05-23T14:51:57.477Z,4.32
2017-05-23T14:54:25.815Z,5.14
2017-05-23T14:56:54.233Z,5.14
2017-05-23T14:59:22.588Z,4.90
2017-05-23T15:01:51.070Z,4.82
2017-05-23T15:04:19.450Z,4.30
2017-05-23T15:06:47.829Z,4.66
2017-05-23T15:09:16.138Z,5.34
2017-05-23T15:11:44.517Z,7.92
2017-05-23T15:14:12.888Z,4.90
2017-05-23T15:16:41.256Z,4.66
2017-05-23T15:19:09.625Z,4.52
2017-05-23T15:21:38.004Z,5.50
2017-05-23T15:24:06.285Z,5.50
2017-05-23T15:26:34.764Z,5.06
2017-05-23T15:29:03.053Z,5.06
2017-05-23T15:31:31.433Z,4.92
2017-05-23T15:33:59.720Z,4.94
2017-05-23T15:36:28.026Z,5.28
2017-05-23T15:38:56.361Z,5.56
2017-05-23T15:41:24.748Z,5.24
2017-05-23T15:43:53.117Z,5.18
2017-05-23T15:46:21.497Z,4.74
2017-05-23T15:48:49.874Z,5.14
2017-05-23T15:51:18.206Z,4.76
2017-05-23T15:53:46.524Z,5.20
2017-05-23T15:56:14.910Z,5.22
2017-05-23T15:58:43.304Z,5.06
2017-05-23T16:01:11.867Z,5.50
2017-05-23T16:03:40.201Z,5.72
2017-05-23T16:06:08.488Z,6.30
2017-05-23T16:08:36.817Z,5.12
2017-05-23T16:11:05.096Z,6.02
2017-05-23T16:13:33.475Z,5.70
2017-05-23T16:16:01.819Z,5.64
2017-05-23T16:18:30.107Z,5.68
2017-05-23T16:20:58.595Z,5.44
2017-05-23T16:23:26.977Z,8.34
2017-05-23T16:25:55.278Z,6.08
2017-05-23T16:28:23.642Z,4.80
2017-05-23T16:30:52.021Z,4.96
2017-05-23T16:33:20.312Z,6.54
2017-05-23T16:35:48.628Z,4.36
2017-05-23T16:38:16.923Z,5.02
2017-05-23T16:40:45.325Z,5.06
2017-05-23T16:43:13.712Z,5.02
2017-05-23T16:45:42.093Z,5.48
2017-05-23T16:50:47.944Z,5.44
2017-05-23T16:53:16.329Z,5.00
2017-05-23T16:55:44.708Z,5.16
2017-05-23T16:58:13.103Z,4.92
2017-05-23T17:00:41.410Z,5.34
2017-05-23T17:03:09.702Z,6.90
2017-05-23T17:05:38.141Z,5.36
2017-05-23T17:08:06.438Z,6.62
2017-05-23T17:10:34.726Z,5.16
2017-05-23T17:13:03.057Z,5.32
2017-05-23T17:15:31.376Z,8.42
2017-05-23T17:18:00.796Z,5.60
2017-05-23T17:20:29.218Z,6.76
2017-05-23T17:22:57.596Z,6.70
2017-05-23T17:25:25.917Z,5.98
2017-05-23T17:27:54.265Z,6.40
2017-05-23T17:30:22.605Z,5.92
2017-05-23T17:32:50.892Z,6.28
2017-05-23T17:35:19.182Z,6.42
2017-05-23T17:37:47.508Z,6.70
2017-05-23T17:40:15.840Z,5.92
2017-05-23T17:42:44.218Z,5.94
2017-05-23T17:45:12.507Z,8.22
2017-05-23T17:47:40.811Z,6.76
2017-05-23T17:50:09.153Z,8.64
2017-05-23T17:52:37.533Z,6.52
2017-05-23T17:55:05.912Z,7.92
2017-05-23T17:57:34.209Z,9.00
2017-05-23T18:00:02.502Z,8.66
2017-05-23T18:02:30.844Z,8.28
2017-05-23T18:04:59.135Z,10.78
2017-05-23T18:07:27.812Z,8.74
2017-05-23T18:09:56.127Z,9.90
2017-05-23T18:12:24.481Z,13.10
2017-05-23T18:14:52.854Z,16.08
2017-05-23T18:17:21.157Z,26.46
2017-05-23T18:19:49.510Z,20.74
2017-05-23T18:22:17.806Z,24.14
2017-05-23T18:24:46.097Z,24.34
2017-05-23T18:27:14.420Z,24.14
2017-05-23T18:29:42.815Z,25.52
2017-05-23T18:32:11.192Z,25.32
2017-05-23T18:34:39.568Z,25.04
2017-05-23T18:37:07.871Z,21.26
2017-05-23T18:39:36.230Z,20.52
2017-05-23T18:42:04.525Z,17.04
2017-05-23T18:44:32.865Z,18.30
2017-05-23T18:47:01.257Z,18.12
2017-05-23T18:49:29.556Z,17.34
2017-05-23T18:51:57.918Z,18.32
2017-05-23T18:54:26.218Z,21.82
2017-05-23T18:56:54.675Z,20.90
2017-05-23T18:59:23.047Z,21.54
2017-05-23T19:01:51.439Z,25.90
2017-05-23T19:04:19.760Z,34.12
2017-05-23T19:06:48.088Z,25.24
2017-05-23T19:09:16.441Z,23.04
2017-05-23T19:11:44.858Z,24.44
2017-05-23T19:14:13.181Z,22.76
2017-05-23T19:16:41.514Z,21.40
2017-05-23T19:19:09.880Z,21.04
2017-05-23T19:21:38.257Z,24.90
2017-05-23T19:24:06.558Z,20.28
2017-05-23T19:26:34.900Z,28.48
2017-05-23T19:29:03.292Z,31.06
2017-05-23T19:31:31.684Z,19.54
2017-05-23T19:33:59.997Z,18.52
2017-05-23T19:36:28.319Z,19.18
2017-05-23T19:38:56.701Z,17.98
2017-05-23T19:41:25.050Z,23.24
2017-05-23T19:43:53.365Z,21.60
2017-05-23T19:46:21.729Z,20.52
2017-05-23T19:48:50.113Z,20.66
2017-05-23T19:51:18.452Z,21.36
2017-05-23T19:53:46.763Z,20.62
2017-05-23T19:56:15.164Z,27.44
2017-05-23T19:58:43.503Z,21.56
2017-05-23T20:01:11.913Z,22.82
2017-05-23T20:03:40.282Z,25.86
2017-05-23T20:06:08.576Z,24.58
2017-05-23T20:08:36.881Z,25.22
2017-05-23T20:11:05.213Z,23.70
2017-05-23T20:13:33.598Z,23.46
2017-05-23T20:16:01.969Z,21.52
2017-05-23T20:18:30.289Z,24.86
2017-05-23T20:20:58.592Z,23.52
2017-05-23T20:23:26.999Z,21.74
2017-05-23T20:25:55.393Z,21.00
2017-05-23T20:28:23.770Z,24.58
2017-05-23T20:30:52.060Z,27.16
2017-05-23T20:33:20.378Z,29.00
2017-05-23T20:35:48.899Z,23.00
2017-05-23T20:38:17.193Z,24.06
2017-05-23T20:40:45.493Z,24.96
2017-05-23T20:43:13.838Z,26.10
2017-05-23T20:45:42.137Z,26.70
2017-05-23T20:48:10.442Z,25.68
2017-05-23T20:50:38.796Z,24.18
2017-05-23T20:53:07.125Z,27.76
2017-05-23T20:55:35.425Z,28.00
2017-05-23T20:58:03.813Z,28.78
2017-05-23T21:00:32.132Z,27.04
2017-05-23T21:03:00.434Z,29.80
2017-05-23T21:05:28.862Z,29.90
2017-05-23T21:07:57.166Z,30.64
2017-05-23T21:10:25.499Z,28.36
2017-05-23T21:12:53.814Z,32.52
2017-05-23T21:15:22.109Z,28.12
2017-05-23T21:17:50.453Z,28.16
2017-05-23T21:20:18.757Z,29.70
2017-05-23T21:22:47.090Z,30.42
2017-05-23T21:25:15.411Z,29.72
2017-05-23T21:27:43.747Z,29.52
2017-05-23T21:30:12.119Z,27.78
2017-05-23T21:32:40.414Z,27.36
2017-05-23T21:35:08.717Z,29.42
2017-05-23T21:37:37.025Z,28.98
2017-05-23T21:40:05.313Z,28.06
2017-05-23T21:42:33.722Z,54.62
2017-05-23T21:45:02.048Z,21.86
2017-05-23T21:47:30.384Z,23.90
2017-05-23T21:49:58.750Z,21.44
2017-05-23T21:52:27.037Z,24.58
2017-05-23T21:54:55.413Z,21.02
2017-05-23T21:57:23.714Z,22.72
2017-05-23T21:59:52.052Z,20.04
2017-05-23T22:02:20.436Z,20.98
2017-05-23T22:04:48.817Z,20.98
2017-05-23T22:07:17.130Z,19.56
2017-05-23T22:09:45.496Z,20.94
2017-05-23T22:12:13.850Z,19.14
2017-05-23T22:14:42.155Z,19.74
2017-05-23T22:17:10.472Z,19.98
2017-05-23T22:19:38.783Z,21.10
2017-05-23T22:22:07.160Z,21.34
2017-05-23T22:24:35.516Z,23.46
2017-05-23T22:27:03.827Z,24.20
2017-05-23T22:29:32.121Z,25.72
2017-05-23T22:32:00.475Z,27.72
2017-05-23T22:34:28.860Z,24.86
2017-05-23T22:36:57.174Z,22.54
2017-05-23T22:39:25.508Z,19.16
2017-05-23T22:41:53.846Z,18.52
2017-05-23T22:44:22.138Z,18.88
2017-05-23T22:46:50.457Z,18.64
2017-05-23T22:49:18.834Z,16.34
2017-05-23T22:51:47.130Z,17.54
2017-05-23T22:54:15.472Z,18.84
2017-05-23T22:56:43.766Z,18.78
2017-05-23T22:59:12.070Z,15.06
2017-05-23T23:01:40.507Z,14.48
2017-05-23T23:04:08.892Z,13.20
2017-05-23T23:06:37.273Z,12.84
2017-05-23T23:09:05.630Z,11.38
2017-05-23T23:11:33.934Z,9.82
2017-05-23T23:14:02.261Z,9.26
2017-05-23T23:16:30.590Z,14.70
2017-05-23T23:18:58.941Z,10.42
2017-05-23T23:21:27.235Z,8.12
2017-05-23T23:23:55.630Z,7.70
2017-05-23T23:26:23.942Z,8.32
2017-05-23T23:28:52.230Z,7.36
2017-05-23T23:31:20.659Z,10.46
2017-05-23T23:33:48.944Z,9.88
2017-05-23T23:36:17.309Z,9.62
2017-05-23T23:38:45.706Z,10.68
2017-05-23T23:41:14.008Z,10.02
2017-05-23T23:43:42.333Z,11.94
2017-05-23T23:46:10.628Z,9.18
2017-05-23T23:48:39.022Z,13.18
2017-05-23T23:51:07.390Z,8.48
2017-05-23T23:53:35.708Z,14.74
2017-05-23T23:56:04.037Z,8.10
2017-05-23T23:58:32.329Z,10.70
